Terminal Aerodrome Forecast
Issued by NWS Grand Forks, ND

Home | Current Version | Previous Version | Text Only | Print | Product List | Glossary On
Versions: 1 2 3 4 5 6 7 8 9 10 11 12 13 14 15 16
943
FTUS43 KFGF 011737
TAFFAR
TAF
KFAR 011737Z 0118/0218 32014KT P6SM BKN015
     FM012000 32014KT P6SM SCT025
     FM020000 32009KT P6SM BKN060
     FM020400 35006KT P6SM BKN070
     FM021400 36010KT P6SM BKN070=

USA.gov is the U.S. government's official web portal to all federal, state and local government web resources and services.